Time;durP1;ratioP1;P1;durP2;ratioP2;P2;SDS_P1;SDS_P2;PMS_P1;PMS_P2;Temp;Humidity;BMP_temperature;BMP_pressure;BME280_temperature;BME280_humidity;BME280_pressure;Samples;Min_cycle;Max_cycle;Signal;HPM_P1;HPM_P2
2020/12/25 00:02:20;;;;;;;8.27;1.85;;;16.80;17.10;;;;;;5012819;28;19963;-66
2020/12/25 00:04:46;;;;;;;;;;;16.80;17.10;;;;;;5000270;28;20042;-66
2020/12/25 00:07:13;;;;;;;9.95;1.95;;;16.70;17.90;;;;;;4988673;28;19918;-65
2020/12/25 00:09:39;;;;;;;;;;;16.70;18.20;;;;;;4993590;28;20035;-65
2020/12/25 00:12:09;;;;;;;11.68;2.20;;;16.70;18.80;;;;;;5005178;28;19917;-65
2020/12/25 00:14:35;;;;;;;9.90;1.90;;;16.60;19.40;;;;;;5002463;28;20023;-65
2020/12/25 00:17:02;;;;;;;11.60;1.90;;;16.60;20.30;;;;;;4993533;28;20116;-65
2020/12/25 00:19:28;;;;;;;;;;;16.60;20.70;;;;;;4993324;28;20120;-65
2020/12/25 00:21:55;;;;;;;12.57;2.10;;;16.50;20.90;;;;;;5008064;28;19910;-66
2020/12/25 00:24:21;;;;;;;12.85;3.00;;;16.40;20.70;;;;;;5003261;28;20032;-66
2020/12/25 00:26:48;;;;;;;13.90;2.88;;;16.40;21.10;;;;;;4985051;28;20473;-65
2020/12/25 00:29:14;;;;;;;;;;;16.30;21.30;;;;;;5007267;28;20033;-65
2020/12/25 00:31:40;;;;;;;13.90;4.38;;;16.30;21.30;;;;;;4990806;28;19910;-65
2020/12/25 00:34:08;;;;;;;;;;;16.20;21.30;;;;;;4984691;28;20038;-65
2020/12/25 00:36:42;;;;;;;10.25;1.70;;;16.10;20.90;;;;;;5000136;28;19956;-65
2020/12/25 00:39:11;;;;;;;13.48;1.60;;;16.00;20.90;;;;;;4992340;28;20487;-64
2020/12/25 00:41:55;;;;;;;10.10;1.65;;;16.00;21.00;;;;;;4991422;28;20021;-66
2020/12/25 00:44:22;;;;;;;13.32;2.38;;;16.00;21.50;;;;;;4997498;28;20105;-64
2020/12/25 00:46:48;;;;;;;;;;;15.90;21.40;;;;;;5013495;28;20477;-65
2020/12/25 00:49:16;;;;;;;10.32;2.63;;;15.90;21.60;;;;;;5005153;28;19953;-65
2020/12/25 00:51:47;;;;;;;9.52;2.67;;;15.90;21.90;;;;;;4987590;28;20044;-65
2020/12/25 00:54:13;;;;;;;11.43;2.50;;;15.90;22.20;;;;;;4986046;28;20114;-64
2020/12/25 00:56:40;;;;;;;;;;;15.80;22.60;;;;;;5000577;28;20035;-66
2020/12/25 00:59:06;;;;;;;12.65;2.13;;;15.70;22.90;;;;;;5016544;28;19910;-66
2020/12/25 01:01:37;;;;;;;6.20;1.70;;;15.80;23.20;;;;;;5000238;28;20049;-65
2020/12/25 01:04:04;;;;;;;10.98;2.08;;;15.70;23.60;;;;;;4994287;28;20043;-65
2020/12/25 01:06:30;;;;;;;5.18;2.13;;;15.70;23.60;;;;;;5005743;28;20026;-65
2020/12/25 01:08:56;;;;;;;;;;;15.60;23.10;;;;;;4997511;28;20032;-66
2020/12/25 01:11:25;;;;;;;8.32;3.00;;;15.60;22.40;;;;;;5008246;28;20382;-66
2020/12/25 01:13:52;;;;;;;16.90;3.83;;;15.60;22.20;;;;;;4988042;28;20168;-65
2020/12/25 01:16:19;;;;;;;14.70;3.63;;;15.60;22.60;;;;;;4990111;28;20110;-65
2020/12/25 01:18:49;;;;;;;12.27;3.20;;;15.60;22.30;;;;;;5007608;28;20025;-65
2020/12/25 01:21:16;;;;;;;11.27;3.20;;;15.60;21.10;;;;;;4992366;28;20073;-66
2020/12/25 01:23:43;;;;;;;7.10;2.50;;;15.60;21.20;;;;;;4988793;28;20042;-66
2020/12/25 01:26:10;;;;;;;5.18;2.30;;;15.60;21.10;;;;;;5003236;28;20034;-65
2020/12/25 01:28:36;;;;;;;;;;;15.60;21.00;;;;;;4997390;28;20030;-66
2020/12/25 01:31:04;;;;;;;21.23;2.85;;;15.60;21.60;;;;;;4985267;28;19912;-65
2020/12/25 01:33:32;;;;;;;27.85;3.33;;;15.60;22.30;;;;;;5002775;28;20021;-65
2020/12/25 01:35:58;;;;;;;19.67;3.60;;;15.60;23.30;;;;;;4997341;28;20040;-66
2020/12/25 01:38:25;;;;;;;15.05;3.60;;;15.60;23.80;;;;;;4989978;28;20047;-65
2020/12/25 01:40:52;;;;;;;16.92;4.05;;;15.50;24.70;;;;;;4992392;28;20027;-66
2020/12/25 01:43:18;;;;;;;15.93;4.43;;;15.40;24.90;;;;;;4980541;28;20043;-66
2020/12/25 01:45:45;;;;;;;31.42;4.65;;;15.50;25.20;;;;;;5000226;28;20063;-65
2020/12/25 01:48:11;;;;;;;;;;;15.30;25.70;;;;;;4985556;28;20027;-65
2020/12/25 01:50:38;;;;;;;18.55;4.25;;;15.30;27.60;;;;;;5014079;28;19964;-65
2020/12/25 01:53:08;;;;;;;13.05;3.90;;;15.30;28.70;;;;;;4995033;28;20501;-65
2020/12/25 01:55:36;;;;;;;25.73;6.20;;;15.10;29.40;;;;;;5010061;28;20054;-65
2020/12/25 01:58:04;;;;;;;28.58;8.75;;;14.90;29.40;;;;;;5004276;28;20028;-65
2020/12/25 02:00:32;;;;;;;21.63;10.10;;;14.80;29.20;;;;;;4992094;28;20025;-64
2020/12/25 02:02:59;;;;;;;22.55;7.20;;;14.80;28.30;;;;;;5011198;28;20070;-65
2020/12/25 02:05:25;;;;;;;;;;;14.80;27.90;;;;;;5005842;28;20023;-64
2020/12/25 02:07:55;;;;;;;20.30;5.07;;;14.70;26.70;;;;;;4996917;28;20298;-65
2020/12/25 02:10:22;;;;;;;13.65;4.38;;;14.70;27.60;;;;;;5002239;28;20017;-65
2020/12/25 02:12:49;;;;;;;22.80;6.15;;;14.70;27.80;;;;;;5007422;28;20368;-65
2020/12/25 02:15:16;;;;;;;34.10;6.60;;;14.60;26.30;;;;;;4997569;28;20401;-65
2020/12/25 02:17:47;;;;;;;46.28;7.22;;;14.60;24.90;;;;;;5009892;28;20037;-65
2020/12/25 02:20:14;;;;;;;51.35;9.10;;;14.70;24.70;;;;;;4989126;28;20043;-66
2020/12/25 02:22:40;;;;;;;55.35;10.73;;;14.70;24.80;;;;;;5026296;28;20041;-65
2020/12/25 02:25:07;;;;;;;;;;;14.80;24.80;;;;;;4998029;28;20038;-65
2020/12/25 02:27:33;;;;;;;72.47;12.43;;;14.80;25.40;;;;;;4993090;28;19966;-65
2020/12/25 02:30:00;;;;;;;70.20;13.57;;;14.80;25.30;;;;;;4989922;28;20043;-66
2020/12/25 02:32:26;;;;;;;;;;;14.80;25.90;;;;;;5005938;28;20459;-66
2020/12/25 02:34:53;;;;;;;52.78;14.10;;;14.80;25.60;;;;;;5004401;28;19922;-65
2020/12/25 02:37:20;;;;;;;69.63;16.90;;;14.80;25.00;;;;;;5011405;28;20038;-66
2020/12/25 02:39:47;;;;;;;80.43;18.85;;;14.80;24.80;;;;;;5005840;28;20084;-65
2020/12/25 02:42:14;;;;;;;74.88;17.48;;;14.80;25.20;;;;;;5003084;28;20058;-65
2020/12/25 02:44:43;;;;;;;77.45;19.40;;;14.80;25.80;;;;;;4979725;28;20055;-65
2020/12/25 02:47:11;;;;;;;82.70;20.30;;;14.80;25.40;;;;;;5001469;28;20057;-65
2020/12/25 02:49:38;;;;;;;93.78;20.83;;;14.80;25.30;;;;;;5005437;28;20025;-66
2020/12/25 02:52:05;;;;;;;67.00;19.80;;;14.80;25.60;;;;;;5009396;28;20075;-65
2020/12/25 02:54:32;;;;;;;94.60;25.45;;;14.70;25.80;;;;;;4999624;28;20510;-65
2020/12/25 02:56:59;;;;;;;99.20;29.20;;;14.70;25.60;;;;;;5000518;28;20083;-65
2020/12/25 02:59:26;;;;;;;81.93;28.08;;;14.70;25.60;;;;;;5002575;28;20032;-65
2020/12/25 03:01:53;;;;;;;92.18;28.77;;;14.70;26.80;;;;;;5012059;28;20029;-65
2020/12/25 03:04:21;;;;;;;109.07;28.73;;;14.60;27.50;;;;;;4991902;28;20060;-65
2020/12/25 03:06:47;;;;;;;81.18;22.55;;;14.60;28.20;;;;;;5013666;28;20017;-65
2020/12/25 03:09:13;;;;;;;;;;;14.50;27.80;;;;;;5021475;28;20082;-66
2020/12/25 03:11:41;;;;;;;98.10;23.13;;;14.40;27.70;;;;;;5010872;28;20248;-65
2020/12/25 03:14:07;;;;;;;98.18;26.38;;;14.40;27.80;;;;;;5010292;28;20544;-65
2020/12/25 03:16:34;;;;;;;97.32;25.85;;;14.40;27.40;;;;;;4993895;28;20050;-64
2020/12/25 03:19:00;;;;;;;94.70;22.45;;;14.40;27.00;;;;;;5006195;28;20036;-65
2020/12/25 03:21:26;;;;;;;;;;;14.40;27.20;;;;;;5005905;28;20035;-65
2020/12/25 03:23:53;;;;;;;93.28;19.13;;;14.40;28.20;;;;;;5006516;28;20246;-66
2020/12/25 03:26:19;;;;;;;75.53;18.55;;;14.40;27.10;;;;;;5018888;28;20021;-65
2020/12/25 03:28:46;;;;;;;;;;;14.40;26.80;;;;;;5007447;28;20025;-65
2020/12/25 03:31:12;;;;;;;77.93;18.70;;;14.40;25.90;;;;;;5014593;28;19916;-65
2020/12/25 03:33:39;;;;;;;88.00;21.45;;;14.50;25.30;;;;;;4999729;28;20027;-65
2020/12/25 03:36:06;;;;;;;74.22;19.38;;;14.40;25.00;;;;;;4999319;28;20025;-66
2020/12/25 03:38:32;;;;;;;86.70;19.75;;;14.40;26.20;;;;;;5010903;28;20085;-66
2020/12/25 03:41:02;;;;;;;80.05;19.98;;;14.50;25.60;;;;;;5006803;28;20037;-65
2020/12/25 03:43:29;;;;;;;70.93;20.25;;;14.50;25.50;;;;;;4993994;28;20050;-66
2020/12/25 03:45:55;;;;;;;89.82;20.52;;;14.40;25.20;;;;;;5041440;28;20081;-65
2020/12/25 03:48:22;;;;;;;95.32;19.80;;;14.50;25.40;;;;;;5026959;28;20096;-65
2020/12/25 03:50:48;;;;;;;;;;;14.50;25.20;;;;;;4984615;28;20035;-65
2020/12/25 03:53:15;;;;;;;83.03;19.58;;;14.40;24.70;;;;;;5020254;28;19936;-65
2020/12/25 03:55:41;;;;;;;;;;;14.50;27.90;;;;;;5008223;28;20021;-65
2020/12/25 03:58:07;;;;;;;72.60;18.15;;;14.50;32.80;;;;;;5018970;28;19909;-66
2020/12/25 04:00:33;;;;;;;;;;;14.40;34.50;;;;;;5007585;28;20032;-65
2020/12/25 04:03:00;;;;;;;74.68;17.30;;;14.30;34.20;;;;;;5006770;28;19956;-65
2020/12/25 04:05:26;;;;;;;;;;;14.20;33.20;;;;;;4995009;28;20023;-64
2020/12/25 04:07:52;;;;;;;85.68;18.90;;;14.20;33.20;;;;;;5005353;28;19910;-64
2020/12/25 04:10:19;;;;;;;71.85;17.98;;;14.20;32.80;;;;;;4974749;28;20027;-64
2020/12/25 04:12:45;;;;;;;;;;;14.20;32.10;;;;;;4993947;28;20030;-65
2020/12/25 04:15:12;;;;;;;67.47;18.10;;;14.20;31.90;;;;;;5004166;28;19918;-64
2020/12/25 04:17:38;;;;;;;;;;;14.10;30.60;;;;;;5017820;28;20038;-64
2020/12/25 04:20:05;;;;;;;54.65;16.23;;;14.10;28.80;;;;;;5037519;28;19908;-64
2020/12/25 04:22:31;;;;;;;57.03;15.90;;;14.10;28.10;;;;;;4988937;28;20546;-66
2020/12/25 04:24:58;;;;;;;46.10;15.10;;;14.10;27.70;;;;;;5000243;28;20049;-65
2020/12/25 04:27:24;;;;;;;;;;;14.10;27.20;;;;;;5008597;28;20057;-64
2020/12/25 04:29:50;;;;;;;53.67;14.90;;;14.10;27.40;;;;;;5017069;28;19909;-64
2020/12/25 04:32:17;;;;;;;;;;;14.10;27.20;;;;;;4985086;28;20023;-64
2020/12/25 04:34:43;;;;;;;50.28;14.80;;;14.10;26.50;;;;;;5002019;28;20366;-65
2020/12/25 04:37:10;;;;;;;47.50;12.00;;;14.10;26.40;;;;;;4999224;28;20023;-65
2020/12/25 04:39:38;;;;;;;;;;;14.10;26.80;;;;;;4991371;28;20052;-65
2020/12/25 04:42:04;;;;;;;36.40;11.82;;;14.10;27.00;;;;;;5009546;28;19938;-65
2020/12/25 04:44:31;;;;;;;36.08;10.32;;;14.20;27.00;;;;;;5008694;28;20051;-64
2020/12/25 04:47:11;;;;;;;34.45;8.70;;;14.20;27.70;;;;;;4984824;28;20054;-65
2020/12/25 04:49:39;;;;;;;33.30;9.70;;;14.20;28.50;;;;;;5021355;28;20084;-65
2020/12/25 04:52:05;;;;;;;31.40;9.30;;;14.10;28.70;;;;;;4990725;28;20027;-64
2020/12/25 04:54:35;;;;;;;29.05;9.43;;;14.10;28.40;;;;;;4976528;28;20033;-63
2020/12/25 04:57:02;;;;;;;40.95;11.15;;;14.10;27.60;;;;;;4995460;28;20047;-63
2020/12/25 04:59:30;;;;;;;30.00;10.02;;;14.10;27.80;;;;;;5008837;28;20355;-64
2020/12/25 05:01:59;;;;;;;40.45;11.43;;;14.10;28.10;;;;;;4996428;28;20416;-63
2020/12/25 05:04:27;;;;;;;38.13;9.07;;;14.10;28.60;;;;;;4998744;28;20025;-64
2020/12/25 05:06:56;;;;;;;33.70;9.50;;;13.90;44.70;;;;;;4998320;28;20073;-64
2020/12/25 05:09:26;;;;;;;28.80;9.48;;;14.00;27.70;;;;;;5004420;28;20035;-65
2020/12/25 05:11:55;;;;;;;28.95;9.27;;;13.90;27.20;;;;;;5013633;28;20090;-64
2020/12/25 05:14:42;;;;;;;26.48;9.25;;;13.90;27.50;;;;;;4989633;28;20383;-65
2020/12/25 05:17:12;;;;;;;27.55;8.98;;;13.90;27.30;;;;;;5000804;28;20035;-65
2020/12/25 05:19:43;;;;;;;23.92;10.18;;;13.90;27.30;;;;;;4997520;28;20432;-64
2020/12/25 05:22:09;;;;;;;30.38;11.25;;;13.90;27.20;;;;;;5005114;28;20079;-65
2020/12/25 05:24:37;;;;;;;;;;;13.90;26.80;;;;;;4994860;28;20034;-64
2020/12/25 05:27:12;;;;;;;38.28;10.45;;;13.90;25.60;;;;;;5005774;28;20028;-65
2020/12/25 05:29:41;;;;;;;25.25;8.30;;;13.50;40.90;;;;;;5004779;28;20029;-62
2020/12/25 05:32:07;;;;;;;22.02;8.40;;;13.90;25.20;;;;;;4997612;28;20380;-65
2020/12/25 05:34:37;;;;;;;22.50;7.57;;;13.90;25.60;;;;;;5005013;28;20033;-65
2020/12/25 05:37:05;;;;;;;26.77;10.70;;;13.90;25.70;;;;;;5009854;28;20031;-65
2020/12/25 05:39:35;;;;;;;26.63;10.65;;;14.00;42.10;;;;;;5008489;28;20032;-65
2020/12/25 05:42:04;;;;;;;25.70;9.70;;;13.90;26.60;;;;;;5000740;28;20046;-65
2020/12/25 05:44:49;;;;;;;23.58;7.90;;;13.90;25.70;;;;;;4990635;28;20068;-65
2020/12/25 05:47:17;;;;;;;20.55;8.25;;;14.00;25.60;;;;;;4987004;28;20515;-65
2020/12/25 05:49:46;;;;;;;24.80;8.60;;;14.00;25.90;;;;;;5002142;28;20043;-66
2020/12/25 05:52:13;;;;;;;24.30;7.75;;;14.00;26.00;;;;;;5010973;28;20104;-66
2020/12/25 05:54:45;;;;;;;26.23;7.70;;;14.00;26.10;;;;;;4992725;28;20487;-65
2020/12/25 05:57:14;;;;;;;20.77;7.80;;;13.90;26.40;;;;;;4978335;28;20053;-65
2020/12/25 05:59:47;;;;;;;25.80;7.63;;;13.90;26.40;;;;;;5004604;28;20031;-65
2020/12/25 06:02:16;;;;;;;34.78;8.98;;;13.90;26.90;;;;;;5010618;28;20346;-66
2020/12/25 06:04:43;;;;;;;24.88;10.05;;;13.90;28.10;;;;;;5011478;28;20120;-66
2020/12/25 06:07:11;;;;;;;;;;;13.90;27.70;;;;;;5008891;28;20237;-64
2020/12/25 06:09:44;;;;;;;21.55;10.00;;;13.90;27.60;;;;;;5008667;28;20000;-64
2020/12/25 06:12:15;;;;;;;18.65;9.35;;;13.90;27.40;;;;;;5009430;28;20033;-65
2020/12/25 06:14:42;;;;;;;17.98;6.15;;;14.00;27.50;;;;;;5011020;28;20034;-66
2020/12/25 06:17:15;;;;;;;20.60;7.80;;;13.90;27.10;;;;;;5010013;28;20028;-65
2020/12/25 06:19:58;;;;;;;29.92;13.82;;;13.90;27.50;;;;;;5001963;28;20036;-61
2020/12/25 06:22:42;;;;;;;15.30;5.95;;;13.90;27.70;;;;;;4998453;28;20021;-64
2020/12/25 06:25:14;;;;;;;14.82;5.28;;;13.90;43.90;;;;;;4985028;28;20177;-65
2020/12/25 06:27:56;;;;;;;15.45;5.95;;;13.90;28.80;;;;;;5008941;28;20028;-65
2020/12/25 06:30:28;;;;;;;14.30;7.38;;;13.90;29.20;;;;;;4986854;28;20027;-65
2020/12/25 06:32:57;;;;;;;16.45;6.30;;;13.90;29.90;;;;;;4996597;28;20035;-65
2020/12/25 06:35:40;;;;;;;17.35;6.25;;;13.90;33.60;;;;;;5002175;28;20116;-64
2020/12/25 06:38:13;;;;;;;13.52;5.47;;;13.90;38.80;;;;;;4989439;28;20487;-65
2020/12/25 06:40:41;;;;;;;17.45;5.80;;;13.80;40.10;;;;;;4987758;28;20080;-64
2020/12/25 06:43:18;;;;;;;16.27;6.97;;;13.80;41.10;;;;;;4970389;28;20046;-66
2020/12/25 06:45:52;;;;;;;19.63;6.28;;;13.50;39.60;;;;;;5021259;28;20485;-64
2020/12/25 06:48:22;;;;;;;14.20;5.68;;;13.40;42.40;;;;;;4999213;28;20025;-65
2020/12/25 06:51:00;;;;;;;16.30;6.60;;;13.30;38.30;;;;;;5004446;28;20425;-64
2020/12/25 06:53:36;;;;;;;12.68;5.53;;;13.20;39.40;;;;;;4981303;28;20042;-65
2020/12/25 06:56:16;;;;;;;11.77;5.15;;;13.10;39.40;;;;;;4996091;28;20045;-65
2020/12/25 06:58:51;;;;;;;13.52;4.65;;;13.10;39.00;;;;;;4991687;28;20027;-65
2020/12/25 07:01:40;;;;;;;13.68;4.97;;;13.20;40.10;;;;;;4985613;28;20023;-65
2020/12/25 07:04:21;;;;;;;18.83;7.00;;;13.20;41.10;;;;;;5015700;28;20042;-66
2020/12/25 07:06:52;;;;;;;23.27;7.80;;;13.10;40.90;;;;;;5005325;28;20025;-64
2020/12/25 07:09:20;;;;;;;18.80;7.05;;;13.20;40.30;;;;;;4995974;28;20040;-64
2020/12/25 07:11:51;;;;;;;13.23;6.53;;;13.00;53.50;;;;;;5000136;28;20062;-65
2020/12/25 07:14:17;;;;;;;15.48;6.75;;;13.10;39.50;;;;;;4995110;28;20020;-65
2020/12/25 07:16:44;;;;;;;16.63;6.80;;;13.10;39.90;;;;;;4996187;28;20107;-65
2020/12/25 07:19:10;;;;;;;;;;;13.20;40.20;;;;;;5000497;28;20032;-65
2020/12/25 07:21:38;;;;;;;16.45;5.88;;;13.10;40.20;;;;;;4983787;28;19910;-65
2020/12/25 07:24:04;;;;;;;16.80;6.75;;;13.10;39.80;;;;;;4997945;28;20044;-65
2020/12/25 07:26:32;;;;;;;16.90;5.82;;;13.10;40.70;;;;;;4991853;28;20042;-65
2020/12/25 07:29:01;;;;;;;16.08;5.97;;;13.10;40.70;;;;;;4973582;28;20079;-65
2020/12/25 07:31:30;;;;;;;16.98;5.00;;;13.10;41.40;;;;;;4999638;28;20021;-64
2020/12/25 07:33:58;;;;;;;13.57;4.60;;;13.10;40.80;;;;;;4994964;28;20043;-65
2020/12/25 07:36:25;;;;;;;11.02;4.43;;;13.00;40.90;;;;;;4999917;28;20076;-66
2020/12/25 07:39:03;;;;;;;12.35;4.57;;;12.90;40.10;;;;;;4998974;28;20040;-65
2020/12/25 07:41:30;;;;;;;10.77;4.50;;;12.90;39.00;;;;;;4998633;28;20024;-65
2020/12/25 07:43:58;;;;;;;14.63;4.32;;;12.90;38.40;;;;;;4984443;28;20062;-64
2020/12/25 07:46:31;;;;;;;8.32;3.90;;;12.90;38.10;;;;;;4993302;28;20020;-65
2020/12/25 07:48:59;;;;;;;12.25;4.10;;;12.90;38.70;;;;;;4975973;28;20034;-65
2020/12/25 07:51:26;;;;;;;13.00;4.00;;;12.80;39.00;;;;;;5013911;28;20047;-65
2020/12/25 07:53:57;;;;;;;15.23;5.13;;;12.80;39.50;;;;;;5003711;28;20041;-65
2020/12/25 07:56:27;;;;;;;13.65;5.85;;;12.80;39.90;;;;;;4984328;28;20054;-64
2020/12/25 07:58:55;;;;;;;13.98;5.70;;;12.80;39.50;;;;;;5049392;28;20118;-66
2020/12/25 08:01:28;;;;;;;18.88;6.50;;;12.80;40.10;;;;;;4996952;28;20055;-65
2020/12/25 08:03:58;;;;;;;14.98;6.10;;;12.80;40.30;;;;;;4991698;28;20024;-67
2020/12/25 08:06:31;;;;;;;17.05;7.90;;;12.70;40.70;;;;;;4998410;28;20027;-65
2020/12/25 08:09:05;;;;;;;18.45;8.52;;;12.60;40.50;;;;;;4997790;28;20087;-69
2020/12/25 08:11:32;;;;;;;16.70;7.85;;;12.70;49.30;;;;;;5002323;28;20030;-67
2020/12/25 08:14:15;;;;;;;13.23;6.97;;;12.70;44.60;;;;;;5013512;28;20447;-64
2020/12/25 08:16:46;;;;;;;18.58;7.50;;;12.50;46.00;;;;;;4988578;28;20708;-65
2020/12/25 08:19:15;;;;;;;21.45;7.25;;;12.60;58.90;;;;;;4981118;28;21422;-65
2020/12/25 08:21:42;;;;;;;21.48;8.65;;;12.50;41.80;;;;;;5001880;28;20061;-65
2020/12/25 08:24:09;;;;;;;;;;;12.40;41.90;;;;;;5012134;28;20051;-65
2020/12/25 08:26:41;;;;;;;48.45;20.27;;;12.60;40.80;;;;;;4994778;28;20431;-66
2020/12/25 08:29:08;;;;;;;29.30;13.57;;;12.40;41.20;;;;;;4986690;28;20040;-65
2020/12/25 08:31:39;;;;;;;32.78;14.95;;;12.60;73.40;;;;;;5005634;28;20029;-65
2020/12/25 08:34:07;;;;;;;35.83;11.73;;;12.20;39.80;;;;;;4978109;28;20031;-65
2020/12/25 08:36:34;;;;;;;28.10;11.18;;;12.40;53.40;;;;;;4990330;28;20036;-65
2020/12/25 08:39:00;;;;;;;;;;;;;;;;;;4978361;28;20042;-64
2020/12/25 08:41:28;;;;;;;28.98;12.45;;;12.20;51.50;;;;;;4998244;28;20047;-65
2020/12/25 08:43:55;;;;;;;26.27;12.15;;;;;;;;;;4996843;28;20043;-65
2020/12/25 08:46:22;;;;;;;29.88;12.70;;;12.10;39.70;;;;;;4990607;28;20055;-65
2020/12/25 08:48:52;;;;;;;32.08;12.95;;;12.00;52.80;;;;;;5011752;28;20021;-65
2020/12/25 08:51:19;;;;;;;30.80;12.70;;;;;;;;;;5006496;28;20025;-65
2020/12/25 08:53:51;;;;;;;29.58;13.63;;;12.00;48.60;;;;;;4988681;28;20044;-66
2020/12/25 08:56:22;;;;;;;33.30;14.55;;;11.90;48.10;;;;;;4998283;28;20517;-64
2020/12/25 08:58:55;;;;;;;30.17;14.25;;;11.90;40.60;;;;;;4993780;28;20494;-65
2020/12/25 09:01:22;;;;;;;28.00;13.48;;;11.90;40.00;;;;;;4998265;28;20031;-65
2020/12/25 09:03:49;;;;;;;30.48;12.90;;;11.90;40.20;;;;;;4996113;28;20054;-65
2020/12/25 09:06:15;;;;;;;;;;;11.90;40.10;;;;;;4995900;28;20031;-65
2020/12/25 09:08:42;;;;;;;30.27;12.20;;;11.90;39.90;;;;;;5004615;28;20370;-65
2020/12/25 09:11:16;;;;;;;22.52;11.60;;;11.80;40.10;;;;;;4976498;28;20155;-64
2020/12/25 09:13:43;;;;;;;24.75;11.88;;;11.70;40.20;;;;;;4997591;28;20383;-65
2020/12/25 09:16:10;;;;;;;26.30;12.05;;;11.70;70.20;;;;;;4990566;28;20081;-64
2020/12/25 09:18:38;;;;;;;29.67;11.75;;;11.80;40.10;;;;;;4999138;28;20027;-63
2020/12/25 09:21:09;;;;;;;27.75;12.65;;;11.80;54.50;;;;;;4985454;28;20047;-66
2020/12/25 09:23:37;;;;;;;26.30;12.13;;;11.70;59.40;;;;;;5004824;28;20126;-65
2020/12/25 09:26:05;;;;;;;30.25;13.60;;;11.70;40.70;;;;;;4988577;28;20341;-66
2020/12/25 09:28:32;;;;;;;29.90;13.73;;;11.70;42.60;;;;;;4989996;28;20084;-66
2020/12/25 09:30:58;;;;;;;30.60;13.68;;;11.70;63.50;;;;;;4996672;28;20028;-65
2020/12/25 09:33:25;;;;;;;27.63;12.68;;;11.40;43.90;;;;;;4990198;28;20025;-65
2020/12/25 09:35:52;;;;;;;;;;;11.60;40.90;;;;;;5008533;28;20542;-66
2020/12/25 09:38:19;;;;;;;21.83;9.90;;;11.50;40.90;;;;;;4988675;28;19917;-65
2020/12/25 09:40:49;;;;;;;22.27;9.75;;;11.40;41.50;;;;;;4992704;28;20051;-65
2020/12/25 09:43:16;;;;;;;32.42;10.18;;;11.40;41.80;;;;;;4978859;28;20534;-65
2020/12/25 09:45:43;;;;;;;20.90;9.68;;;11.40;41.80;;;;;;5011331;28;20045;-65
2020/12/25 09:48:10;;;;;;;22.95;10.80;;;11.40;42.50;;;;;;4979861;28;20093;-65
2020/12/25 09:50:37;;;;;;;27.05;11.90;;;11.30;42.70;;;;;;5002898;28;20036;-65
2020/12/25 09:53:04;;;;;;;33.35;12.60;;;11.30;42.80;;;;;;4986767;28;20040;-65
2020/12/25 09:55:36;;;;;;;26.92;14.70;;;11.30;42.50;;;;;;4975793;28;20050;-66
2020/12/25 09:58:04;;;;;;;36.05;16.48;;;11.30;42.70;;;;;;5011757;28;20027;-66
2020/12/25 10:00:30;;;;;;;43.60;16.60;;;11.30;42.90;;;;;;4998983;28;20071;-66
2020/12/25 10:02:58;;;;;;;34.83;16.77;;;11.30;42.90;;;;;;4975472;28;20061;-66
2020/12/25 10:05:24;;;;;;;42.22;17.48;;;11.30;43.20;;;;;;4998597;28;20032;-66
2020/12/25 10:07:54;;;;;;;38.55;17.30;;;11.30;43.80;;;;;;5005075;28;20080;-66
2020/12/25 10:10:22;;;;;;;44.65;18.55;;;11.20;44.20;;;;;;4968842;28;20062;-66
2020/12/25 10:12:50;;;;;;;49.30;18.45;;;11.10;44.10;;;;;;4986473;28;20036;-66
2020/12/25 10:15:17;;;;;;;49.22;19.17;;;11.10;44.20;;;;;;4989990;28;20041;-66
2020/12/25 10:17:43;;;;;;;52.42;22.77;;;11.10;44.80;;;;;;4994478;28;20034;-66
2020/12/25 10:20:09;;;;;;;;;;;11.10;44.90;;;;;;4985244;28;20037;-68
2020/12/25 10:22:36;;;;;;;47.28;21.65;;;10.90;50.70;;;;;;4984017;28;19932;-67
2020/12/25 10:25:03;;;;;;;48.90;21.95;;;10.40;45.80;;;;;;4987343;28;20031;-67
2020/12/25 10:27:30;;;;;;;55.92;23.30;;;10.90;45.10;;;;;;5007691;28;20029;-65
2020/12/25 10:29:56;;;;;;;54.13;23.92;;;10.90;45.40;;;;;;5001375;28;20509;-65
2020/12/25 10:32:23;;;;;;;57.67;26.33;;;10.90;46.00;;;;;;4993783;28;20490;-64
2020/12/25 10:34:50;;;;;;;62.35;25.60;;;9.90;51.10;;;;;;4993783;28;20480;-66
2020/12/25 10:37:16;;;;;;;;;;;10.80;46.00;;;;;;5006662;28;20044;-66
2020/12/25 10:39:42;;;;;;;80.00;31.15;;;10.80;46.40;;;;;;4980351;28;19973;-66
2020/12/25 10:42:12;;;;;;;70.00;29.60;;;10.70;46.50;;;;;;5002192;28;20485;-66
2020/12/25 10:44:39;;;;;;;66.90;29.23;;;10.70;46.30;;;;;;4997177;28;20155;-66
2020/12/25 10:47:05;;;;;;;;;;;10.50;46.80;;;;;;4993075;28;20116;-65
2020/12/25 10:49:32;;;;;;;72.55;31.90;;;10.40;46.60;;;;;;4978914;28;20271;-66
2020/12/25 10:51:58;;;;;;;75.30;34.63;;;10.30;46.50;;;;;;4985503;28;20039;-66
2020/12/25 10:54:25;;;;;;;;;;;10.20;46.80;;;;;;4995718;28;20039;-67
2020/12/25 10:56:51;;;;;;;96.95;34.80;;;10.30;46.60;;;;;;4995957;28;20292;-66
2020/12/25 10:59:18;;;;;;;83.13;37.00;;;10.30;46.60;;;;;;4986455;28;20080;-65
2020/12/25 11:01:46;;;;;;;96.47;35.28;;;10.40;46.00;;;;;;4966852;28;20035;-66
2020/12/25 11:04:14;;;;;;;90.25;36.95;;;10.40;45.80;;;;;;4998783;28;20418;-65
2020/12/25 11:06:41;;;;;;;84.88;35.08;;;10.40;46.00;;;;;;4986619;28;20500;-67
2020/12/25 11:09:09;;;;;;;98.53;36.80;;;10.30;53.60;;;;;;4980610;28;20076;-66
2020/12/25 11:11:39;;;;;;;90.32;35.70;;;10.40;58.40;;;;;;4989499;28;20438;-66
2020/12/25 11:14:06;;;;;;;85.00;35.05;;;10.30;71.30;;;;;;4991209;28;20431;-66
2020/12/25 11:16:34;;;;;;;82.95;35.20;;;10.30;47.00;;;;;;4996390;28;20425;-65
2020/12/25 11:19:03;;;;;;;80.85;33.80;;;10.30;47.00;;;;;;4973255;28;20426;-65
2020/12/25 11:21:31;;;;;;;66.63;31.13;;;10.20;46.80;;;;;;5002153;28;20043;-66
2020/12/25 11:23:59;;;;;;;62.80;31.65;;;10.20;46.10;;;;;;4990697;28;20535;-66
2020/12/25 11:26:29;;;;;;;73.97;29.55;;;10.20;46.60;;;;;;5023354;28;20040;-66
2020/12/25 11:28:57;;;;;;;82.45;29.98;;;10.20;46.20;;;;;;4979244;28;20423;-66
2020/12/25 11:31:24;;;;;;;66.45;29.73;;;10.20;46.50;;;;;;4982149;28;20122;-66
2020/12/25 11:33:52;;;;;;;84.28;30.77;;;10.20;46.60;;;;;;4998789;28;20430;-66
2020/12/25 11:36:25;;;;;;;77.45;30.55;;;10.10;46.60;;;;;;4982268;28;20711;-66
2020/12/25 11:38:52;;;;;;;74.60;30.63;;;10.20;46.50;;;;;;5038366;28;20035;-66
2020/12/25 11:41:21;;;;;;;68.45;29.65;;;10.10;46.40;;;;;;5007163;28;20030;-65
2020/12/25 11:43:49;;;;;;;81.10;29.02;;;10.00;47.20;;;;;;4996033;28;20573;-63
2020/12/25 11:46:17;;;;;;;76.43;29.83;;;10.00;47.20;;;;;;5008860;28;20032;-66
2020/12/25 11:48:44;;;;;;;70.68;29.63;;;10.10;46.60;;;;;;4996776;28;20069;-67
2020/12/25 11:51:17;;;;;;;78.40;28.63;;;10.00;47.20;;;;;;5007314;28;20039;-66
2020/12/25 11:53:45;;;;;;;71.95;28.92;;;10.00;47.50;;;;;;5051883;28;20048;-66
2020/12/25 11:56:12;;;;;;;64.57;28.70;;;10.00;47.70;;;;;;4997387;28;20088;-66
2020/12/25 11:58:39;;;;;;;62.30;26.23;;;10.00;48.20;;;;;;4994400;28;20502;-66
2020/12/25 12:01:05;;;;;;;;;;;10.00;47.80;;;;;;4998010;28;20044;-66
2020/12/25 12:03:31;;;;;;;69.47;28.17;;;10.00;47.70;;;;;;5000499;28;20420;-66
2020/12/25 12:05:58;;;;;;;;;;;9.90;47.80;;;;;;4996328;28;20771;-66
2020/12/25 12:08:24;;;;;;;55.60;26.77;;;9.80;48.40;;;;;;5005567;28;19930;-66
2020/12/25 12:10:51;;;;;;;;;;;9.80;48.00;;;;;;5003266;28;20039;-65
2020/12/25 12:13:17;;;;;;;61.10;26.92;;;9.80;48.20;;;;;;5004109;28;19923;-67
2020/12/25 12:15:44;;;;;;;64.03;28.23;;;9.80;48.70;;;;;;5009683;28;20175;-66
2020/12/25 12:18:10;;;;;;;;;;;9.80;49.70;;;;;;5001029;28;20355;-67
2020/12/25 12:20:37;;;;;;;66.13;28.35;;;9.70;49.50;;;;;;4983934;28;19922;-67
2020/12/25 12:23:04;;;;;;;59.42;27.25;;;9.70;50.10;;;;;;5004915;28;20034;-70
2020/12/25 12:25:31;;;;;;;66.00;27.42;;;9.70;50.70;;;;;;5015660;28;20495;-67
2020/12/25 12:27:58;;;;;;;67.82;28.40;;;9.60;50.70;;;;;;4995719;28;20028;-67
2020/12/25 12:30:24;;;;;;;61.85;28.55;;;9.60;50.40;;;;;;5009845;28;20055;-67
2020/12/25 12:32:50;;;;;;;;;;;9.60;50.00;;;;;;4983306;28;20094;-67
2020/12/25 12:35:17;;;;;;;60.03;27.15;;;9.50;49.70;;;;;;4998133;28;19925;-67
2020/12/25 12:37:45;;;;;;;64.45;26.40;;;9.50;49.60;;;;;;4996682;28;20152;-67
2020/12/25 12:40:13;;;;;;;67.45;27.30;;;9.50;49.70;;;;;;4990761;28;20046;-67
2020/12/25 12:42:40;;;;;;;56.00;26.58;;;9.60;49.90;;;;;;4988956;28;20407;-67
2020/12/25 12:45:09;;;;;;;56.72;28.30;;;9.50;50.20;;;;;;4979707;28;20070;-66
2020/12/25 12:47:36;;;;;;;52.53;25.58;;;9.30;49.80;;;;;;4980957;28;20488;-67
2020/12/25 12:50:12;;;;;;;53.97;24.92;;;9.30;50.40;;;;;;4964204;28;20091;-67
2020/12/25 12:52:38;;;;;;;48.55;20.85;;;9.30;50.30;;;;;;4984317;28;20033;-66